Time;durP1;ratioP1;P1;durP2;ratioP2;P2;SDS_P1;SDS_P2;PMS_P1;PMS_P2;Temp;Humidity;BMP_temperature;BMP_pressure;BME280_temperature;BME280_humidity;BME280_pressure;Samples;Min_cycle;Max_cycle;Signal;HPM_P1;HPM_P2
2023/03/15 00:01:15;;;;;;;3.40;2.22;;;;;;;;;;5006763;28;20792;-69
2023/03/15 00:03:40;;;;;;;3.10;2.30;;;;;;;;;;5006841;28;20125;-64
2023/03/15 00:06:06;;;;;;;3.20;2.20;;;;;;;;;;4985117;28;20120;-63
2023/03/15 00:08:34;;;;;;;2.95;2.03;;;;;;;;;;5022357;28;20029;-67
2023/03/15 00:10:59;;;;;;;2.63;1.83;;;;;;;;;;5027242;28;20112;-66
2023/03/15 00:13:25;;;;;;;3.78;2.17;;;;;;;;;;5016992;28;20133;-66
2023/03/15 00:15:50;;;;;;;3.37;2.07;;;;;;;;;;5027237;28;20037;-66
2023/03/15 00:18:16;;;;;;;2.63;1.83;;;;;;;;;;5027098;28;20693;-67
2023/03/15 00:20:41;;;;;;;3.40;2.00;;;;;;;;;;5016597;28;20037;-67
2023/03/15 00:23:06;;;;;;;3.58;2.20;;;;;;;;;;4993549;28;20411;-68
2023/03/15 00:25:32;;;;;;;3.03;2.00;;;;;;;;;;5008523;28;20172;-67
2023/03/15 00:27:57;;;;;;;3.35;2.22;;;;;;;;;;5022565;28;20042;-67
2023/03/15 00:30:22;;;;;;;3.70;2.03;;;;;;;;;;5022938;28;20417;-67
2023/03/15 00:32:47;;;;;;;3.27;1.90;;;;;;;;;;5025720;28;20351;-67
2023/03/15 00:35:13;;;;;;;3.40;2.00;;;;;;;;;;5017176;28;20280;-66
2023/03/15 00:37:38;;;;;;;2.92;2.00;;;;;;;;;;5026920;28;20025;-67
2023/03/15 00:40:05;;;;;;;3.13;2.07;;;;;;;;;;5026042;28;20029;-67
2023/03/15 00:42:31;;;;;;;3.47;2.25;;;;;;;;;;4998044;28;20672;-65
2023/03/15 00:44:56;;;;;;;2.80;1.95;;;;;;;;;;5024965;28;20064;-66
2023/03/15 00:47:21;;;;;;;3.20;2.20;;;;;;;;;;5026737;28;20049;-68
2023/03/15 00:49:46;;;;;;;3.50;2.42;;;;;;;;;;5026459;28;20808;-69
2023/03/15 00:52:12;;;;;;;3.43;2.40;;;;;;;;;;5026438;28;20034;-70
2023/03/15 00:54:37;;;;;;;3.23;1.97;;;;;;;;;;5020625;28;20548;-65
2023/03/15 00:57:02;;;;;;;2.80;2.00;;;;;;;;;;5029147;28;20327;-66
2023/03/15 00:59:28;;;;;;;2.70;1.85;;;;;;;;;;5021665;28;20291;-68
2023/03/15 01:01:53;;;;;;;3.42;2.30;;;;;;;;;;5023116;28;20033;-64
2023/03/15 01:04:18;;;;;;;3.53;2.63;;;;;;;;;;5020288;28;20053;-68
2023/03/15 01:06:43;;;;;;;3.13;2.20;;;;;;;;;;5023838;28;20828;-67
2023/03/15 01:09:09;;;;;;;3.07;2.03;;;;;;;;;;5022154;28;20666;-69
2023/03/15 01:11:34;;;;;;;4.00;2.37;;;;;;;;;;5021521;28;20518;-66
2023/03/15 01:13:59;;;;;;;3.85;2.50;;;;;;;;;;5025607;28;20708;-67
2023/03/15 01:16:25;;;;;;;3.77;2.30;;;;;;;;;;5013477;28;20046;-68
2023/03/15 01:18:50;;;;;;;3.45;2.20;;;;;;;;;;5019153;28;20342;-67
2023/03/15 01:21:15;;;;;;;4.53;2.23;;;;;;;;;;5026253;28;20033;-68
2023/03/15 01:23:41;;;;;;;3.78;2.45;;;;;;;;;;5025999;28;20295;-70
2023/03/15 01:26:06;;;;;;;3.30;2.40;;;;;;;;;;5025865;28;20029;-68
2023/03/15 01:28:32;;;;;;;3.90;2.70;;;;;;;;;;5015400;28;20533;-68
2023/03/15 01:30:57;;;;;;;3.63;2.22;;;;;;;;;;5010840;28;20497;-68
2023/03/15 01:33:22;;;;;;;4.27;2.40;;;;;;;;;;5021475;28;20498;-67
2023/03/15 01:35:47;;;;;;;3.40;2.40;;;;;;;;;;5023028;28;20798;-69
2023/03/15 01:38:13;;;;;;;4.10;2.72;;;;;;;;;;5025526;28;20041;-68
2023/03/15 01:40:42;;;;;;;3.05;2.30;;;;;;;;;;5021727;28;20422;-65
2023/03/15 01:43:07;;;;;;;3.00;2.40;;;;;;;;;;5022598;28;20048;-63
2023/03/15 01:45:51;;;;;;;4.43;2.70;;;;;;;;;;5020502;28;20046;-67
2023/03/15 01:48:17;;;;;;;3.53;2.17;;;;;;;;;;5023693;28;20362;-67
2023/03/15 01:50:42;;;;;;;4.10;2.40;;;;;;;;;;5024121;28;20843;-65
2023/03/15 01:53:07;;;;;;;3.40;2.67;;;;;;;;;;5014470;28;20311;-66
2023/03/15 01:55:32;;;;;;;3.33;2.60;;;;;;;;;;4988830;28;20371;-66
2023/03/15 01:57:57;;;;;;;3.30;2.43;;;;;;;;;;4997206;28;20292;-66
2023/03/15 02:00:23;;;;;;;4.37;2.80;;;;;;;;;;5009145;28;20990;-66
2023/03/15 02:02:48;;;;;;;3.53;2.53;;;;;;;;;;5022565;28;20788;-68
2023/03/15 02:05:15;;;;;;;4.33;2.50;;;;;;;;;;5024796;28;20080;-67
2023/03/15 02:07:48;;;;;;;3.35;2.80;;;;;;;;;;5023290;28;20301;-68
2023/03/15 02:10:13;;;;;;;3.40;2.60;;;;;;;;;;5023336;28;20529;-69
2023/03/15 02:12:44;;;;;;;3.50;2.70;;;;;;;;;;5023916;28;20037;-67
2023/03/15 02:15:10;;;;;;;4.03;2.65;;;;;;;;;;5005394;28;20061;-67
2023/03/15 02:17:42;;;;;;;3.88;2.75;;;;;;;;;;4990809;28;20079;-68
2023/03/15 02:20:08;;;;;;;3.33;2.47;;;;;;;;;;5023155;28;20526;-66
2023/03/15 02:22:45;;;;;;;3.60;2.42;;;;;;;;;;5023062;28;20045;-66
2023/03/15 02:25:10;;;;;;;4.38;2.80;;;;;;;;;;4993677;28;20046;-67
2023/03/15 02:27:36;;;;;;;3.87;2.40;;;;;;;;;;5011065;28;20014;-68
2023/03/15 02:30:04;;;;;;;4.07;2.87;;;;;;;;;;5024503;28;20410;-66
2023/03/15 02:32:29;;;;;;;3.90;2.95;;;;;;;;;;5014568;28;20009;-67
2023/03/15 02:34:55;;;;;;;3.15;2.10;;;;;;;;;;4995958;28;20072;-66
2023/03/15 02:37:20;;;;;;;3.85;2.63;;;;;;;;;;5023551;28;20532;-66
2023/03/15 02:39:45;;;;;;;3.50;2.53;;;;;;;;;;5028857;28;20415;-66
2023/03/15 02:42:11;;;;;;;4.30;2.70;;;;;;;;;;5028025;28;20390;-67
2023/03/15 02:44:36;;;;;;;3.80;2.60;;;;;;;;;;5022634;28;20013;-68
2023/03/15 02:47:12;;;;;;;3.63;2.58;;;;;;;;;;5027515;28;20025;-69
2023/03/15 02:49:38;;;;;;;3.88;2.75;;;;;;;;;;4999270;28;20053;-67
2023/03/15 02:52:04;;;;;;;3.65;2.70;;;;;;;;;;5010855;28;20029;-67
2023/03/15 02:54:33;;;;;;;3.75;2.55;;;;;;;;;;5002867;28;20047;-66
2023/03/15 02:56:58;;;;;;;3.80;2.70;;;;;;;;;;5018338;28;20517;-66
2023/03/15 02:59:23;;;;;;;3.60;2.60;;;;;;;;;;5019126;28;20022;-66
2023/03/15 03:01:48;;;;;;;3.87;2.80;;;;;;;;;;5009007;28;20665;-67
2023/03/15 03:04:13;;;;;;;3.57;2.60;;;;;;;;;;5018531;28;20458;-67
2023/03/15 03:06:41;;;;;;;4.20;2.87;;;;;;;;;;4992719;28;20388;-66
2023/03/15 03:09:07;;;;;;;3.65;2.75;;;;;;;;;;4990544;28;20832;-63
2023/03/15 03:11:32;;;;;;;4.20;3.00;;;;;;;;;;4999989;28;20201;-64
2023/03/15 03:13:57;;;;;;;4.35;2.60;;;;;;;;;;5014252;28;20280;-66
2023/03/15 03:16:22;;;;;;;4.55;2.60;;;;;;;;;;5005989;28;20517;-66
2023/03/15 03:18:48;;;;;;;3.50;2.60;;;;;;;;;;5023175;28;20038;-67
2023/03/15 03:21:13;;;;;;;3.60;2.50;;;;;;;;;;5022392;28;20025;-66
2023/03/15 03:23:38;;;;;;;3.78;2.70;;;;;;;;;;5018706;28;20037;-69
2023/03/15 03:26:09;;;;;;;3.30;2.35;;;;;;;;;;4987687;28;20057;-67
2023/03/15 03:28:35;;;;;;;3.67;2.60;;;;;;;;;;5023861;28;20533;-66
2023/03/15 03:31:00;;;;;;;3.80;2.67;;;;;;;;;;5026886;28;20056;-67
2023/03/15 03:33:25;;;;;;;3.47;2.47;;;;;;;;;;5023868;28;20292;-65
2023/03/15 03:35:50;;;;;;;4.45;2.80;;;;;;;;;;5025933;28;20275;-67
2023/03/15 03:38:16;;;;;;;3.58;2.70;;;;;;;;;;5023441;28;20042;-67
2023/03/15 03:40:41;;;;;;;4.90;3.00;;;;;;;;;;5028409;28;20364;-66
2023/03/15 03:43:07;;;;;;;4.10;2.90;;;;;;;;;;5008475;28;20316;-64
2023/03/15 03:45:32;;;;;;;4.95;3.17;;;;;;;;;;5007775;28;20817;-64
2023/03/15 03:47:57;;;;;;;4.70;2.90;;;;;;;;;;5029765;28;20494;-65
2023/03/15 03:50:22;;;;;;;3.47;2.55;;;;;;;;;;5029865;28;20276;-66
2023/03/15 03:52:48;;;;;;;3.97;2.72;;;;;;;;;;5029077;28;20060;-66
2023/03/15 03:55:13;;;;;;;3.87;2.70;;;;;;;;;;5029918;28;20079;-68
2023/03/15 03:57:39;;;;;;;4.27;2.50;;;;;;;;;;5014975;28;20319;-65
2023/03/15 04:00:05;;;;;;;4.40;2.78;;;;;;;;;;5016762;28;20661;-66
2023/03/15 04:02:30;;;;;;;3.72;3.03;;;;;;;;;;5013099;28;20026;-66
2023/03/15 04:04:55;;;;;;;3.63;2.80;;;;;;;;;;5013171;28;20104;-64
2023/03/15 04:07:20;;;;;;;4.97;3.00;;;;;;;;;;5012682;28;20280;-66
2023/03/15 04:09:46;;;;;;;3.83;2.83;;;;;;;;;;5015772;28;20436;-67
2023/03/15 04:12:11;;;;;;;3.57;2.97;;;;;;;;;;5015427;28;20820;-66
2023/03/15 04:14:36;;;;;;;3.72;2.75;;;;;;;;;;5023053;28;20582;-66
2023/03/15 04:17:02;;;;;;;4.13;3.20;;;;;;;;;;5014094;28;20033;-70
2023/03/15 04:19:27;;;;;;;4.10;2.65;;;;;;;;;;5013835;28;20033;-68
2023/03/15 04:21:53;;;;;;;4.68;3.05;;;;;;;;;;5019051;28;20061;-68
2023/03/15 04:24:18;;;;;;;3.47;2.70;;;;;;;;;;5011455;28;20045;-66
2023/03/15 04:26:43;;;;;;;6.47;2.60;;;;;;;;;;5012029;28;20288;-66
2023/03/15 04:29:09;;;;;;;4.75;2.88;;;;;;;;;;5011179;28;20346;-69
2023/03/15 04:31:36;;;;;;;3.70;2.80;;;;;;;;;;5013236;28;20298;-65
2023/03/15 04:34:02;;;;;;;4.30;2.78;;;;;;;;;;5010417;28;20061;-64
2023/03/15 04:36:27;;;;;;;3.67;2.85;;;;;;;;;;5012598;28;20847;-65
2023/03/15 04:39:03;;;;;;;3.88;2.83;;;;;;;;;;5012283;28;20091;-70
2023/03/15 04:41:28;;;;;;;3.67;2.42;;;;;;;;;;4997812;28;20030;-67
2023/03/15 04:43:53;;;;;;;4.35;2.90;;;;;;;;;;4993902;28;20044;-66
2023/03/15 04:46:19;;;;;;;3.57;2.57;;;;;;;;;;4997805;28;20159;-66
2023/03/15 04:48:44;;;;;;;4.90;2.70;;;;;;;;;;5008806;28;20275;-65
2023/03/15 04:51:09;;;;;;;5.00;2.93;;;;;;;;;;5010378;28;20092;-63
2023/03/15 04:53:34;;;;;;;3.90;2.50;;;;;;;;;;5009762;28;20042;-66
2023/03/15 04:56:00;;;;;;;4.47;2.80;;;;;;;;;;5009350;28;20054;-62
2023/03/15 04:58:25;;;;;;;4.03;3.03;;;;;;;;;;4995720;28;20030;-65
2023/03/15 05:00:51;;;;;;;3.73;2.67;;;;;;;;;;5021008;23;20571;-65
2023/03/15 05:03:16;;;;;;;3.67;2.53;;;;;;;;;;5042809;28;20436;-67
2023/03/15 05:05:43;;;;;;;4.53;3.10;;;;;;;;;;5044259;28;20769;-68
2023/03/15 05:08:08;;;;;;;3.55;2.75;;;;;;;;;;5030692;28;20367;-61
2023/03/15 05:10:34;;;;;;;3.87;2.57;;;;;;;;;;5042762;28;20505;-63
2023/03/15 05:12:59;;;;;;;3.17;2.45;;;;;;;;;;5030576;28;20291;-69
2023/03/15 05:15:24;;;;;;;4.05;2.60;;;;;;;;;;5042545;28;20037;-68
2023/03/15 05:17:53;;;;;;;4.30;2.77;;;;;;;;;;5030860;28;20180;-64
2023/03/15 05:20:19;;;;;;;3.45;2.60;;;;;;;;;;5028046;28;20328;-63
2023/03/15 05:22:44;;;;;;;3.80;2.50;;;;;;;;;;5031637;28;20120;-64
2023/03/15 05:25:10;;;;;;;4.00;2.60;;;;;;;;;;5044108;28;20065;-67
2023/03/15 05:27:35;;;;;;;3.20;2.53;;;;;;;;;;5029059;28;20292;-64
2023/03/15 05:30:04;;;;;;;3.85;2.70;;;;;;;;;;5041676;28;20308;-64
2023/03/15 05:32:33;;;;;;;3.63;2.65;;;;;;;;;;5027480;28;20036;-68
2023/03/15 05:34:58;;;;;;;3.97;2.72;;;;;;;;;;5032754;28;20818;-64
2023/03/15 05:37:23;;;;;;;3.35;2.53;;;;;;;;;;5029522;28;20045;-64
2023/03/15 05:39:49;;;;;;;4.00;2.75;;;;;;;;;;5042434;28;20118;-65
2023/03/15 05:42:14;;;;;;;3.53;2.50;;;;;;;;;;5031468;28;20095;-66
2023/03/15 05:44:40;;;;;;;3.58;2.60;;;;;;;;;;5019960;28;20127;-69
2023/03/15 05:47:05;;;;;;;2.97;2.28;;;;;;;;;;5040798;28;20072;-66
2023/03/15 05:49:30;;;;;;;3.33;2.47;;;;;;;;;;5030635;28;20049;-66
2023/03/15 05:51:55;;;;;;;4.53;2.72;;;;;;;;;;5037319;28;20041;-66
2023/03/15 05:54:21;;;;;;;3.30;2.55;;;;;;;;;;5033009;28;20044;-67
2023/03/15 05:56:47;;;;;;;4.20;2.70;;;;;;;;;;5042891;28;20037;-69
2023/03/15 05:59:12;;;;;;;3.45;2.60;;;;;;;;;;5053612;22;20045;-67
2023/03/15 06:01:37;;;;;;;4.40;2.60;;;;;;;;;;5045337;28;20049;-71
2023/03/15 06:04:03;;;;;;;5.50;2.75;;;;;;;;;;5047326;28;20322;-66
2023/03/15 06:06:28;;;;;;;4.80;2.92;;;;;;;;;;5033487;28;20852;-64
2023/03/15 06:08:53;;;;;;;3.80;2.85;;;;;;;;;;5036885;28;20090;-67
2023/03/15 06:11:19;;;;;;;5.00;2.78;;;;;;;;;;5046475;28;20044;-68
2023/03/15 06:13:44;;;;;;;4.90;2.40;;;;;;;;;;5042410;28;20094;-66
2023/03/15 06:16:09;;;;;;;4.30;2.60;;;;;;;;;;5032913;28;20048;-67
2023/03/15 06:18:35;;;;;;;3.28;2.63;;;;;;;;;;5043848;28;20292;-65
2023/03/15 06:21:00;;;;;;;4.55;2.55;;;;;;;;;;5021336;28;20045;-70
2023/03/15 06:23:25;;;;;;;4.73;2.43;;;;;;;;;;5021996;28;21049;-64
2023/03/15 06:25:51;;;;;;;4.38;2.58;;;;;;;;;;5036617;28;20291;-69
2023/03/15 06:28:16;;;;;;;4.13;2.25;;;;;;;;;;5037307;28;20449;-70
2023/03/15 06:30:41;;;;;;;4.10;2.30;;;;;;;;;;5032467;28;20025;-65
2023/03/15 06:33:06;;;;;;;4.00;2.40;;;;;;;;;;5027541;28;20048;-69
2023/03/15 06:35:32;;;;;;;4.45;2.50;;;;;;;;;;5043080;28;20290;-72
2023/03/15 06:37:57;;;;;;;4.10;3.00;;;;;;;;;;5032658;28;20489;-66
2023/03/15 06:40:22;;;;;;;3.60;2.30;;;;;;;;;;5031752;28;20378;-68
2023/03/15 06:42:47;;;;;;;3.43;2.53;;;;;;;;;;5032975;28;20291;-69
2023/03/15 06:45:15;;;;;;;3.50;2.40;;;;;;;;;;5030194;28;20299;-68
2023/03/15 06:47:40;;;;;;;3.50;2.70;;;;;;;;;;5036996;28;20295;-72
2023/03/15 06:50:06;;;;;;;5.13;2.20;;;;;;;;;;5045547;28;20469;-71
2023/03/15 06:52:32;;;;;;;6.05;2.40;;;;;;;;;;5038506;28;20402;-73
2023/03/15 06:54:57;;;;;;;4.18;2.50;;;;;;;;;;5041455;28;20094;-74
2023/03/15 06:57:22;;;;;;;4.57;2.67;;;;;;;;;;5022985;28;20061;-69
2023/03/15 06:59:48;;;;;;;6.55;2.60;;;;;;;;;;5040470;28;20378;-74
2023/03/15 07:02:14;;;;;;;3.42;2.22;;;;;;;;;;5022471;28;20037;-64
2023/03/15 07:04:39;;;;;;;3.42;2.42;;;;;;;;;;5034458;28;20025;-62
2023/03/15 07:07:04;;;;;;;4.13;2.50;;;;;;;;;;5027851;28;20148;-66
2023/03/15 07:09:30;;;;;;;3.30;2.00;;;;;;;;;;5034228;28;20049;-72
2023/03/15 07:11:55;;;;;;;3.33;2.30;;;;;;;;;;5034787;28;20323;-71
2023/03/15 07:14:21;;;;;;;3.38;2.42;;;;;;;;;;5030699;28;20292;-66
2023/03/15 07:16:46;;;;;;;3.38;2.40;;;;;;;;;;5039474;28;20037;-66
2023/03/15 07:19:11;;;;;;;3.60;2.80;;;;;;;;;;5049774;28;20044;-73
2023/03/15 07:21:37;;;;;;;4.22;2.42;;;;;;;;;;5025828;28;20099;-76
2023/03/15 07:24:02;;;;;;;3.07;2.20;;;;;;;;;;5022262;28;20032;-72
2023/03/15 07:26:27;;;;;;;3.47;2.10;;;;;;;;;;5034399;28;20299;-64
2023/03/15 07:28:53;;;;;;;5.65;2.60;;;;;;;;;;5033223;28;20127;-69
2023/03/15 07:31:18;;;;;;;3.92;2.25;;;;;;;;;;5034749;28;20124;-70
2023/03/15 07:33:43;;;;;;;3.78;2.58;;;;;;;;;;5032749;28;20048;-67
2023/03/15 07:36:08;;;;;;;3.92;2.55;;;;;;;;;;5032519;28;20593;-71
2023/03/15 07:38:34;;;;;;;2.65;2.20;;;;;;;;;;5043312;28;20044;-71
2023/03/15 07:41:03;;;;;;;3.03;2.38;;;;;;;;;;5034257;28;20091;-67
2023/03/15 07:43:28;;;;;;;3.83;2.50;;;;;;;;;;5043939;28;20044;-68
2023/03/15 07:45:53;;;;;;;3.60;2.42;;;;;;;;;;5037650;28;20029;-67
2023/03/15 07:48:19;;;;;;;3.40;2.40;;;;;;;;;;5037079;28;20045;-67
2023/03/15 07:50:44;;;;;;;3.60;2.40;;;;;;;;;;5021139;28;20486;-71
2023/03/15 07:53:09;;;;;;;3.17;2.08;;;;;;;;;;5042578;28;20119;-66
2023/03/15 07:55:34;;;;;;;4.13;2.17;;;;;;;;;;5029486;28;20052;-67
2023/03/15 07:58:00;;;;;;;2.97;2.30;;;;;;;;;;5031980;28;20371;-71
2023/03/15 08:00:25;;;;;;;5.68;2.30;;;;;;;;;;5032154;28;20037;-74
2023/03/15 08:02:51;;;;;;;3.42;2.47;;;;;;;;;;5038741;28;20056;-68
2023/03/15 08:05:19;;;;;;;3.13;2.33;;;;;;;;;;5033454;28;20038;-67
2023/03/15 08:07:45;;;;;;;3.75;2.17;;;;;;;;;;5043382;28;20182;-70
2023/03/15 08:10:10;;;;;;;2.65;2.15;;;;;;;;;;5038201;28;20112;-61
2023/03/15 08:12:36;;;;;;;3.47;2.10;;;;;;;;;;5046238;28;20068;-60
2023/03/15 08:15:01;;;;;;;3.92;2.20;;;;;;;;;;5049344;28;20053;-77
2023/03/15 08:17:26;;;;;;;3.10;2.17;;;;;;;;;;5044959;28;20181;-74
2023/03/15 08:19:51;;;;;;;2.80;2.10;;;;;;;;;;5036713;28;20037;-65
2023/03/15 08:22:17;;;;;;;4.28;2.22;;;;;;;;;;5037312;28;20736;-72
2023/03/15 08:24:44;;;;;;;3.70;2.42;;;;;;;;;;5037007;28;20128;-70
2023/03/15 08:27:09;;;;;;;3.75;2.38;;;;;;;;;;5038337;28;20112;-67
2023/03/15 08:29:36;;;;;;;2.90;2.15;;;;;;;;;;5038880;28;20073;-69
2023/03/15 08:32:02;;;;;;;3.47;2.42;;;;;;;;;;5046072;28;20068;-62
2023/03/15 08:34:27;;;;;;;3.33;2.28;;;;;;;;;;5047465;28;20445;-74
2023/03/15 08:36:52;;;;;;;3.28;2.28;;;;;;;;;;5024849;28;20375;-73
2023/03/15 08:39:17;;;;;;;3.22;1.92;;;;;;;;;;5026949;28;20036;-67
2023/03/15 08:41:44;;;;;;;3.90;2.33;;;;;;;;;;5046172;28;20036;-65
2023/03/15 08:44:09;;;;;;;3.10;2.08;;;;;;;;;;5035159;28;20284;-67
2023/03/15 08:46:34;;;;;;;4.38;2.33;;;;;;;;;;5047292;28;20033;-68
2023/03/15 08:49:00;;;;;;;3.43;2.10;;;;;;;;;;5039980;28;20832;-67
2023/03/15 08:51:26;;;;;;;3.20;1.92;;;;;;;;;;5036175;28;20288;-68
2023/03/15 08:53:51;;;;;;;3.03;2.30;;;;;;;;;;5049720;28;20504;-70
2023/03/15 08:56:17;;;;;;;3.85;2.42;;;;;;;;;;5043473;28;20078;-74
2023/03/15 08:58:42;;;;;;;3.55;2.42;;;;;;;;;;5038900;28;20046;-70
2023/03/15 09:01:09;;;;;;;2.63;1.95;;;;;;;;;;5048273;28;20037;-68
2023/03/15 09:03:35;;;;;;;2.50;2.08;;;;;;;;;;5051714;28;21653;-75
2023/03/15 09:06:00;;;;;;;3.17;2.00;;;;;;;;;;5043041;28;20033;-70
2023/03/15 09:08:25;;;;;;;3.05;2.13;;;;;;;;;;5026522;28;20370;-73
2023/03/15 09:10:57;;;;;;;3.05;2.20;;;;;;;;;;5035917;28;20033;-66
2023/03/15 09:13:22;;;;;;;3.17;2.45;;;;;;;;;;5045839;28;20049;-71
2023/03/15 09:15:48;;;;;;;3.65;2.17;;;;;;;;;;5036101;28;20414;-65
2023/03/15 09:18:13;;;;;;;4.00;2.08;;;;;;;;;;5033856;28;20056;-66
2023/03/15 09:20:40;;;;;;;3.37;2.40;;;;;;;;;;5047444;28;20063;-62
2023/03/15 09:23:05;;;;;;;3.10;2.35;;;;;;;;;;5043844;28;20302;-71
2023/03/15 09:25:30;;;;;;;3.05;2.35;;;;;;;;;;5036237;28;20033;-73
2023/03/15 09:27:55;;;;;;;3.07;2.10;;;;;;;;;;5036084;28;20776;-67
2023/03/15 09:30:21;;;;;;;4.07;2.17;;;;;;;;;;5024923;28;20292;-75
2023/03/15 09:32:46;;;;;;;3.33;2.00;;;;;;;;;;5036111;28;20040;-77
2023/03/15 09:35:13;;;;;;;3.47;2.10;;;;;;;;;;5045785;28;20037;-73
2023/03/15 09:37:38;;;;;;;3.40;2.33;;;;;;;;;;5033163;28;20065;-70
2023/03/15 09:40:03;;;;;;;3.47;2.20;;;;;;;;;;5038276;28;20470;-65
2023/03/15 09:42:34;;;;;;;3.60;2.20;;;;;;;;;;5035231;28;20037;-70
2023/03/15 09:45:05;;;;;;;3.13;2.17;;;;;;;;;;5042760;28;20040;-71
2023/03/15 09:47:39;;;;;;;3.35;2.45;;;;;;;;;;5041283;28;21911;-71
2023/03/15 09:50:05;;;;;;;3.13;2.17;;;;;;;;;;5034259;28;20033;-62
2023/03/15 09:52:37;;;;;;;2.78;2.10;;;;;;;;;;5049902;28;20064;-73
2023/03/15 09:55:11;;;;;;;3.20;2.10;;;;;;;;;;5021872;28;20651;-68
2023/03/15 09:57:37;;;;;;;5.10;2.33;;;;;;;;;;5030919;28;20060;-67
2023/03/15 10:00:04;;;;;;;2.50;1.90;;;;;;;;;;5041949;28;20032;-72
2023/03/15 10:02:29;;;;;;;4.20;2.28;;;;;;;;;;5048340;28;20298;-63
2023/03/15 10:04:57;;;;;;;3.55;2.30;;;;;;;;;;5037005;28;20025;-64
2023/03/15 10:07:23;;;;;;;3.05;1.85;;;;;;;;;;5020806;28;20064;-66
2023/03/15 10:09:48;;;;;;;3.67;2.10;;;;;;;;;;5021420;28;20061;-66
2023/03/15 10:12:14;;;;;;;3.65;2.53;;;;;;;;;;5045062;28;20045;-69
2023/03/15 10:14:58;;;;;;;3.90;2.42;;;;;;;;;;5046081;28;20440;-73
2023/03/15 10:17:29;;;;;;;3.33;2.20;;;;;;;;;;5038732;28;20559;-67
2023/03/15 10:19:57;;;;;;;2.75;1.95;;;;;;;;;;5032882;28;20502;-69
2023/03/15 10:22:40;;;;;;;3.35;2.15;;;;;;;;;;5032845;28;20839;-69
2023/03/15 10:25:05;;;;;;;3.35;2.17;;;;;;;;;;5031691;28;20045;-71
2023/03/15 10:27:33;;;;;;;3.07;2.03;;;;;;;;;;5037818;28;20091;-64
2023/03/15 10:29:58;;;;;;;3.97;2.33;;;;;;;;;;5045568;28;20328;-64
2023/03/15 10:32:31;;;;;;;3.00;2.10;;;;;;;;;;5032440;28;20061;-67
2023/03/15 10:34:56;;;;;;;3.67;2.08;;;;;;;;;;5019465;28;20131;-70
2023/03/15 10:37:22;;;;;;;2.70;2.20;;;;;;;;;;5032758;28;20129;-67
2023/03/15 10:39:48;;;;;;;3.00;2.20;;;;;;;;;;5034337;28;20045;-62
2023/03/15 10:42:30;;;;;;;3.47;2.17;;;;;;;;;;5018793;28;20104;-65
2023/03/15 10:44:55;;;;;;;4.10;2.22;;;;;;;;;;5030640;28;20071;-71
2023/03/15 10:47:21;;;;;;;3.33;2.03;;;;;;;;;;5043928;28;20053;-70
2023/03/15 10:49:46;;;;;;;3.33;2.20;;;;;;;;;;5019829;28;20107;-69
2023/03/15 10:52:27;;;;;;;2.70;2.05;;;;;;;;;;5030882;28;20742;-62
2023/03/15 10:54:52;;;;;;;3.30;2.00;;;;;;;;;;5024348;28;21375;-71
2023/03/15 10:57:18;;;;;;;3.22;2.28;;;;;;;;;;5029554;28;20044;-62
2023/03/15 11:00:16;;;;;;;3.17;2.10;;;;;;;;;;5034392;28;20047;-64
2023/03/15 11:02:47;;;;;;;2.92;2.00;;;;;;;;;;5037665;28;20369;-70
2023/03/15 11:05:14;;;;;;;2.85;1.80;;;;;;;;;;5035710;28;20033;-71
2023/03/15 11:07:52;;;;;;;3.88;2.00;;;;;;;;;;5044490;28;20151;-65
2023/03/15 11:10:21;;;;;;;2.47;1.90;;;;;;;;;;5035134;28;20060;-74
2023/03/15 11:12:47;;;;;;;2.47;1.70;;;;;;;;;;5030072;28;20052;-65
2023/03/15 11:15:13;;;;;;;2.88;2.08;;;;;;;;;;5039518;28;20033;-71
2023/03/15 11:17:42;;;;;;;2.75;2.05;;;;;;;;;;5020108;28;20041;-72
2023/03/15 11:20:18;;;;;;;3.07;1.90;;;;;;;;;;5034449;28;20052;-66
2023/03/15 11:22:43;;;;;;;3.33;2.08;;;;;;;;;;5019708;28;20175;-62
2023/03/15 11:25:12;;;;;;;3.07;2.10;;;;;;;;;;5031084;28;20132;-64
2023/03/15 11:27:37;;;;;;;3.35;2.10;;;;;;;;;;5034887;28;20345;-70
2023/03/15 11:30:03;;;;;;;2.87;1.93;;;;;;;;;;5046985;28;20080;-66
2023/03/15 11:32:29;;;;;;;2.58;2.15;;;;;;;;;;5030536;28;20294;-63
2023/03/15 11:34:59;;;;;;;3.30;2.10;;;;;;;;;;5041955;28;20104;-70
2023/03/15 11:37:31;;;;;;;3.67;2.45;;;;;;;;;;5043358;28;20040;-67
2023/03/15 11:40:00;;;;;;;3.05;2.00;;;;;;;;;;5042878;28;20040;-71
2023/03/15 11:42:31;;;;;;;3.22;2.00;;;;;;;;;;5030412;28;20068;-66
2023/03/15 11:44:57;;;;;;;2.80;2.08;;;;;;;;;;5029699;28;20100;-67
2023/03/15 11:47:35;;;;;;;2.97;2.00;;;;;;;;;;5034241;28;20270;-65
2023/03/15 11:50:00;;;;;;;3.00;2.30;;;;;;;;;;5030770;28;20064;-68
2023/03/15 11:52:26;;;;;;;3.35;2.30;;;;;;;;;;5036923;28;20042;-65
2023/03/15 11:54:53;;;;;;;2.70;2.00;;;;;;;;;;5015015;28;20037;-63
2023/03/15 11:57:39;;;;;;;2.95;2.05;;;;;;;;;;5035953;28;20690;-67
2023/03/15 12:00:16;;;;;;;3.78;2.00;;;;;;;;;;5036376;28;20045;-67
2023/03/15 12:02:58;;;;;;;3.88;2.20;;;;;;;;;;5035561;28;20045;-73
2023/03/15 12:05:55;;;;;;;3.17;2.05;;;;;;;;;;5035715;28;20123;-70
2023/03/15 12:08:23;;;;;;;3.13;1.95;;;;;;;;;;4994015;28;20053;-73
2023/03/15 12:10:49;;;;;;;4.68;2.45;;;;;;;;;;5017167;28;20048;-66
2023/03/15 12:13:35;;;;;;;3.53;2.22;;;;;;;;;;5040612;28;20037;-68
2023/03/15 12:16:00;;;;;;;2.95;1.83;;;;;;;;;;5042444;28;20053;-67
2023/03/15 12:18:45;;;;;;;3.63;2.40;;;;;;;;;;5042226;28;20106;-71
2023/03/15 12:21:12;;;;;;;3.58;1.92;;;;;;;;;;5034303;28;20280;-74
2023/03/15 12:23:40;;;;;;;3.25;1.88;;;;;;;;;;5042182;28;20033;-70
2023/03/15 12:26:09;;;;;;;3.25;1.95;;;;;;;;;;5044251;28;20041;-68
2023/03/15 12:28:34;;;;;;;3.63;1.75;;;;;;;;;;5043696;28;20056;-69
2023/03/15 12:31:01;;;;;;;3.17;2.00;;;;;;;;;;5035514;28;20052;-74
2023/03/15 12:33:27;;;;;;;3.33;2.22;;;;;;;;;;5037004;28;20689;-67
2023/03/15 12:35:57;;;;;;;3.13;1.95;;;;;;;;;;5017202;28;20079;-65
2023/03/15 12:38:22;;;;;;;3.33;2.00;;;;;;;;;;5052239;28;20041;-75
2023/03/15 12:40:48;;;;;;;2.63;1.90;;;;;;;;;;5036381;28;20041;-69
2023/03/15 12:43:13;;;;;;;3.15;1.77;;;;;;;;;;5037755;28;20823;-66
2023/03/15 12:45:40;;;;;;;3.08;1.90;;;;;;;;;;5038010;28;20061;-66
2023/03/15 12:48:07;;;;;;;2.67;1.95;;;;;;;;;;5035613;28;20107;-67
2023/03/15 12:50:44;;;;;;;4.22;2.30;;;;;;;;;;5034102;28;20049;-68
2023/03/15 12:53:30;;;;;;;3.35;1.83;;;;;;;;;;5044132;28;20137;-71
2023/03/15 12:55:56;;;;;;;2.45;1.75;;;;;;;;;;5030574;28;20053;-67
2023/03/15 12:58:25;;;;;;;2.97;1.90;;;;;;;;;;5021758;28;20080;-68
2023/03/15 13:00:50;;;;;;;3.63;2.10;;;;;;;;;;5033805;28;20021;-72
2023/03/15 13:03:22;;;;;;;3.00;1.77;;;;;;;;;;5033581;28;20021;-63
2023/03/15 13:05:53;;;;;;;2.90;1.98;;;;;;;;;;5045666;28;20021;-69
2023/03/15 13:08:20;;;;;;;3.25;1.98;;;;;;;;;;5034921;28;20037;-67
2023/03/15 13:11:04;;;;;;;3.25;1.90;;;;;;;;;;5039940;28;20053;-72
2023/03/15 13:13:48;;;;;;;3.05;1.98;;;;;;;;;;5035238;28;20044;-72
2023/03/15 13:16:14;;;;;;;2.50;1.67;;;;;;;;;;5034921;28;20029;-68
2023/03/15 13:19:05;;;;;;;2.90;1.90;;;;;;;;;;5035454;28;20767;-70
2023/03/15 13:21:33;;;;;;;3.17;1.80;;;;;;;;;;5020638;28;20041;-75
2023/03/15 13:23:59;;;;;;;2.92;1.80;;;;;;;;;;5023773;28;20110;-65
2023/03/15 13:26:34;;;;;;;3.17;1.55;;;;;;;;;;5038115;28;20057;-67
2023/03/15 13:29:20;;;;;;;2.65;1.67;;;;;;;;;;5033424;28;20037;-66
2023/03/15 13:31:45;;;;;;;2.63;1.98;;;;;;;;;;5027718;28;20047;-71
2023/03/15 13:34:20;;;;;;;3.15;1.88;;;;;;;;;;5032166;28;20160;-64
2023/03/15 13:36:47;;;;;;;2.40;1.75;;;;;;;;;;5034990;28;20052;-64
2023/03/15 13:39:23;;;;;;;2.80;1.60;;;;;;;;;;5034484;28;20029;-67
2023/03/15 13:41:48;;;;;;;2.67;1.80;;;;;;;;;;5034085;28;20064;-73
2023/03/15 13:44:23;;;;;;;3.03;1.92;;;;;;;;;;5037054;28;20053;-65
2023/03/15 13:46:49;;;;;;;3.50;2.03;;;;;;;;;;5049800;28;20025;-63
2023/03/15 13:49:14;;;;;;;2.72;1.60;;;;;;;;;;5036320;28;20033;-72
2023/03/15 13:51:40;;;;;;;3.47;1.88;;;;;;;;;;5034198;28;20020;-62
2023/03/15 13:54:18;;;;;;;3.28;2.00;;;;;;;;;;5016707;28;20037;-67
2023/03/15 13:57:00;;;;;;;2.50;1.88;;;;;;;;;;5020834;28;20041;-66
2023/03/15 13:59:26;;;;;;;2.58;1.83;;;;;;;;;;5031219;28;20041;-68
2023/03/15 14:01:52;;;;;;;2.13;1.90;;;;;;;;;;5033538;28;20128;-63
2023/03/15 14:04:18;;;;;;;2.90;2.20;;;;;;;;;;5032546;28;20547;-67
2023/03/15 14:06:47;;;;;;;2.60;1.90;;;;;;;;;;5044218;28;20071;-65
2023/03/15 14:09:21;;;;;;;2.58;1.67;;;;;;;;;;5032640;28;20091;-63
2023/03/15 14:11:58;;;;;;;2.78;1.73;;;;;;;;;;5033345;28;20120;-71
2023/03/15 14:14:24;;;;;;;2.70;1.77;;;;;;;;;;5030711;28;22305;-68
2023/03/15 14:16:50;;;;;;;2.38;1.70;;;;;;;;;;5046503;28;20047;-69
2023/03/15 14:19:19;;;;;;;3.83;1.88;;;;;;;;;;5032472;28;20543;-65
2023/03/15 14:21:47;;;;;;;2.20;1.60;;;;;;;;;;5032494;28;20041;-71
2023/03/15 14:24:18;;;;;;;3.08;1.90;;;;;;;;;;5034629;28;20118;-72
2023/03/15 14:26:43;;;;;;;2.97;2.00;;;;;;;;;;5035488;28;20128;-62
2023/03/15 14:29:14;;;;;;;2.27;1.60;;;;;;;;;;5032990;28;20679;-64
2023/03/15 14:31:40;;;;;;;2.65;1.67;;;;;;;;;;5036122;28;20321;-71
2023/03/15 14:34:15;;;;;;;3.22;1.90;;;;;;;;;;5049027;28;20049;-69
2023/03/15 14:36:41;;;;;;;2.50;1.70;;;;;;;;;;5031412;28;20037;-62
2023/03/15 14:39:16;;;;;;;3.30;1.90;;;;;;;;;;5052916;28;20025;-63
2023/03/15 14:41:41;;;;;;;3.25;1.70;;;;;;;;;;5046392;28;20056;-66
2023/03/15 14:44:06;;;;;;;2.47;1.80;;;;;;;;;;5046755;28;20033;-62